createdAt,value
2023-04-15T00:00:46.483Z,75.8826
2023-04-15T00:01:48.319Z,75.3427
2023-04-15T00:02:50.374Z,76.2130
2023-04-15T00:03:52.265Z,77.0850
2023-04-15T00:04:53.990Z,77.1774
2023-04-15T00:05:55.497Z,77.3623
2023-04-15T00:06:57.050Z,77.0799
2023-04-15T00:07:58.571Z,76.8405
2023-04-15T00:09:00.769Z,78.0880
2023-04-15T00:10:00.468Z,76.9721
2023-04-15T00:11:02.095Z,77.3239
2023-04-15T00:12:03.689Z,78.5299
2023-04-15T00:13:05.280Z,76.3290
2023-04-15T00:14:06.845Z,77.0283
2023-04-15T00:15:08.373Z,75.6367
2023-04-15T00:16:09.954Z,76.2850
2023-04-15T00:17:11.455Z,76.3400
2023-04-15T00:18:13.948Z,76.5942
2023-04-15T00:19:13.099Z,75.9723
2023-04-15T00:20:14.633Z,74.5785
2023-04-15T00:21:16.198Z,76.4928
2023-04-15T00:22:17.736Z,77.7236
2023-04-15T00:23:19.278Z,76.5479
2023-04-15T00:24:20.867Z,75.3436
2023-04-15T00:25:22.386Z,74.3672
2023-04-15T00:26:23.914Z,76.2158
2023-04-15T00:27:25.425Z,78.9357
2023-04-15T00:28:26.940Z,76.8624
2023-04-15T00:29:28.474Z,77.8502
2023-04-15T00:30:30.313Z,78.5534
2023-04-15T00:31:31.794Z,77.4934
2023-04-15T00:32:33.338Z,77.5745
2023-04-15T00:33:34.884Z,78.1097
2023-04-15T00:34:36.403Z,78.8764
2023-04-15T00:35:37.931Z,79.9617
2023-04-15T00:36:39.429Z,79.6418
2023-04-15T00:37:40.905Z,79.3047
2023-04-15T00:38:42.405Z,79.2642
2023-04-15T00:39:43.906Z,79.5621
2023-04-15T00:40:45.388Z,80.1558
2023-04-15T00:41:46.928Z,80.5587
2023-04-15T00:42:48.478Z,80.5629
2023-04-15T00:43:49.913Z,81.4156
2023-04-15T00:44:51.477Z,80.7800
2023-04-15T00:45:53.023Z,81.6780
2023-04-15T00:46:54.515Z,81.6816
2023-04-15T00:47:56.082Z,83.2768
2023-04-15T00:48:57.985Z,81.3066
2023-04-15T00:49:59.466Z,81.4797
2023-04-15T00:51:00.992Z,81.3488
2023-04-15T00:52:02.524Z,79.8270
2023-04-15T00:53:04.092Z,79.6879
2023-04-15T00:54:05.586Z,80.6510
2023-04-15T00:55:07.052Z,79.0760
2023-04-15T00:56:08.531Z,80.1265
2023-04-15T00:57:10.056Z,78.3249
2023-04-15T00:58:11.594Z,78.0990
2023-04-15T00:59:13.125Z,79.0609
2023-04-15T01:00:14.645Z,80.1415
2023-04-15T01:01:16.211Z,78.5160
2023-04-15T01:02:18.116Z,78.5066
2023-04-15T01:03:20.162Z,77.5667
2023-04-15T01:04:21.878Z,78.5826
2023-04-15T01:05:23.414Z,79.0301
2023-04-15T01:06:24.913Z,76.9783
2023-04-15T01:07:26.422Z,76.5750
2023-04-15T01:08:27.864Z,77.2969
2023-04-15T01:09:29.379Z,76.7083
2023-04-15T01:10:30.887Z,77.2314
2023-04-15T01:11:32.417Z,77.7890
2023-04-15T01:12:33.927Z,77.8515
2023-04-15T01:13:35.458Z,78.0784
2023-04-15T01:14:36.968Z,77.7146
2023-04-15T01:15:38.432Z,78.6036
2023-04-15T01:16:39.983Z,77.7834
2023-04-15T01:17:41.475Z,77.3796
2023-04-15T01:18:42.954Z,77.2192
2023-04-15T01:19:44.417Z,77.1617
2023-04-15T01:20:45.920Z,76.5107
2023-04-15T01:21:47.457Z,75.9881
2023-04-15T01:22:48.961Z,76.8083
2023-04-15T01:23:50.434Z,76.3538
2023-04-15T01:24:51.966Z,75.6652
2023-04-15T01:25:53.422Z,76.4054
2023-04-15T01:26:54.917Z,74.9489
2023-04-15T01:27:56.372Z,74.2954
2023-04-15T01:28:58.443Z,76.2163
2023-04-15T01:29:57.815Z,75.0875
2023-04-15T01:30:59.325Z,75.1171
2023-04-15T01:32:00.789Z,76.2440
2023-04-15T01:33:02.399Z,76.0704
2023-04-15T01:34:03.882Z,75.0619
2023-04-15T01:35:05.394Z,75.1984
2023-04-15T01:36:06.926Z,76.5772
2023-04-15T01:37:08.390Z,76.8965
2023-04-15T01:38:09.885Z,76.4229
2023-04-15T01:39:11.360Z,76.4414
2023-04-15T01:40:12.855Z,77.0115
2023-04-15T01:41:14.336Z,78.3376
2023-04-15T01:42:15.898Z,77.5717
2023-04-15T01:43:17.410Z,77.2962
2023-04-15T01:44:18.927Z,75.8690
2023-04-15T01:45:20.463Z,77.0142
2023-04-15T01:46:22.060Z,75.9846
2023-04-15T01:47:23.622Z,75.3705
2023-04-15T01:48:25.097Z,77.1240
2023-04-15T01:49:26.652Z,76.2708
2023-04-15T01:50:28.148Z,76.0201
2023-04-15T01:51:30.692Z,76.3353
2023-04-15T01:52:29.849Z,76.1835
2023-04-15T01:53:31.338Z,76.2675
2023-04-15T01:54:32.847Z,76.5482
2023-04-15T01:55:34.326Z,76.2919
2023-04-15T01:56:35.782Z,76.2581
2023-04-15T01:57:37.266Z,74.4914
2023-04-15T01:58:38.765Z,76.0747
2023-04-15T01:59:40.277Z,77.8928
2023-04-15T02:00:41.834Z,78.4533
2023-04-15T02:01:43.312Z,79.8891
2023-04-15T02:02:45.173Z,80.1410
2023-04-15T02:03:46.969Z,80.3890
2023-04-15T02:04:48.585Z,80.5825
2023-04-15T02:05:50.120Z,80.0684
2023-04-15T02:06:51.606Z,80.7864
2023-04-15T02:07:53.094Z,79.8014
2023-04-15T02:08:54.556Z,79.8531
2023-04-15T02:09:56.041Z,80.7772
2023-04-15T02:10:57.519Z,80.2285
2023-04-15T02:11:59.021Z,80.0923
2023-04-15T02:13:00.510Z,78.7474
2023-04-15T02:14:02.074Z,79.1804
2023-04-15T02:15:03.536Z,78.7262
2023-04-15T02:16:05.053Z,78.6009
2023-04-15T02:17:06.525Z,78.0676
2023-04-15T02:18:08.081Z,77.7441
2023-04-15T02:19:09.800Z,79.1915
2023-04-15T02:20:11.291Z,78.9360
2023-04-15T02:21:12.805Z,79.1022
2023-04-15T02:22:14.292Z,79.2578
2023-04-15T02:23:15.739Z,79.5459
2023-04-15T02:24:17.228Z,80.8524
2023-04-15T02:25:18.699Z,80.2139
2023-04-15T02:26:20.213Z,80.8462
2023-04-15T02:27:21.766Z,80.5653
2023-04-15T02:28:23.512Z,81.0191
2023-04-15T02:29:24.962Z,81.0026
2023-04-15T02:30:26.452Z,80.5643
2023-04-15T02:31:28.013Z,81.8655
2023-04-15T02:32:29.474Z,80.5266
2023-04-15T02:33:30.937Z,81.0279
2023-04-15T02:34:32.459Z,81.1458
2023-04-15T02:35:33.903Z,81.0249
2023-04-15T02:36:35.416Z,81.1150
2023-04-15T02:37:36.883Z,81.0682
2023-04-15T02:38:38.397Z,80.5584
2023-04-15T02:39:39.904Z,81.7556
2023-04-15T02:40:41.410Z,81.2943
2023-04-15T02:41:42.885Z,79.2569
2023-04-15T02:42:44.399Z,79.0425
2023-04-15T02:43:46.048Z,78.7624
2023-04-15T02:44:47.663Z,78.0912
2023-04-15T02:45:49.245Z,77.9812
2023-04-15T02:46:51.693Z,79.0899
2023-04-15T02:47:50.944Z,78.8312
2023-04-15T02:48:52.369Z,78.3259
2023-04-15T02:49:53.942Z,78.5793
2023-04-15T02:50:55.544Z,78.3091
2023-04-15T02:51:57.025Z,78.7481
2023-04-15T02:52:58.517Z,79.3368
2023-04-15T02:54:00.014Z,80.4335
2023-04-15T02:55:01.568Z,79.5652
2023-04-15T02:56:03.058Z,79.9437
2023-04-15T02:57:04.536Z,79.7475
2023-04-15T02:58:06.088Z,80.5564
2023-04-15T02:59:07.720Z,79.4977
2023-04-15T03:00:09.191Z,80.4800
2023-04-15T03:01:10.728Z,80.2959
2023-04-15T03:02:12.506Z,80.0109
2023-04-15T03:03:14.233Z,80.2170
2023-04-15T03:04:16.044Z,80.7709
2023-04-15T03:05:17.626Z,81.3578
2023-04-15T03:06:19.166Z,80.8574
2023-04-15T03:07:20.629Z,80.0472
2023-04-15T03:08:22.113Z,80.8544
2023-04-15T03:09:23.594Z,80.6697
2023-04-15T03:10:25.071Z,79.9931
2023-04-15T03:11:26.630Z,79.8390
2023-04-15T03:12:28.143Z,79.7657
2023-04-15T03:13:28.329Z,79.8196
2023-04-15T03:14:29.823Z,79.5558
2023-04-15T03:15:31.447Z,79.8232
2023-04-15T03:16:32.917Z,80.4292
2023-04-15T03:17:34.472Z,80.1271
2023-04-15T03:18:35.924Z,79.2305
2023-04-15T03:19:37.418Z,79.6107
2023-04-15T03:20:39.173Z,80.1090
2023-04-15T03:21:40.648Z,79.6745
2023-04-15T03:22:42.121Z,80.4463
2023-04-15T03:23:43.570Z,80.4530
2023-04-15T03:24:45.080Z,79.7608
2023-04-15T03:25:46.630Z,80.5519
2023-04-15T03:26:48.135Z,79.3521
2023-04-15T03:27:49.667Z,80.5439
2023-04-15T03:28:51.203Z,80.4122
2023-04-15T03:29:52.739Z,79.8012
2023-04-15T03:30:54.387Z,79.1281
2023-04-15T03:31:54.579Z,78.9297
2023-04-15T03:32:56.218Z,80.0948
2023-04-15T03:33:57.766Z,79.9796
2023-04-15T03:34:59.373Z,78.4954
2023-04-15T03:36:00.961Z,79.6223
2023-04-15T03:37:02.508Z,78.8655
2023-04-15T03:38:04.051Z,78.0544
2023-04-15T03:39:06.683Z,78.2837
2023-04-15T03:40:05.827Z,79.1346
2023-04-15T03:41:07.461Z,80.0577
2023-04-15T03:42:08.944Z,79.9040
2023-04-15T03:43:10.502Z,80.4074
2023-04-15T03:44:12.036Z,81.4532
2023-04-15T03:45:13.574Z,80.7952
2023-04-15T03:46:15.256Z,80.3977
2023-04-15T03:47:16.716Z,80.8285
2023-04-15T03:48:18.920Z,79.8499
2023-04-15T03:49:20.426Z,79.9559
2023-04-15T03:50:21.971Z,79.6059
2023-04-15T03:51:23.577Z,80.4078
2023-04-15T03:52:25.126Z,79.6713
2023-04-15T03:53:26.671Z,79.9743
2023-04-15T03:54:28.242Z,80.3743
2023-04-15T03:55:29.810Z,80.9644
2023-04-15T03:56:32.492Z,80.1110
2023-04-15T03:57:31.750Z,80.8482
2023-04-15T03:58:33.281Z,80.4971
2023-04-15T03:59:34.812Z,80.6168
2023-04-15T04:00:36.429Z,80.2225
2023-04-15T04:01:38.116Z,80.1514
2023-04-15T04:02:40.208Z,79.7890
2023-04-15T04:03:40.361Z,80.5889
2023-04-15T04:04:39.832Z,81.0941
2023-04-15T04:05:41.692Z,80.5710
2023-04-15T04:06:43.460Z,80.5835
2023-04-15T04:07:45.033Z,80.6273
2023-04-15T04:08:46.609Z,80.7449
2023-04-15T04:09:48.160Z,80.4731
2023-04-15T04:10:49.692Z,80.1389
2023-04-15T04:11:51.280Z,80.8161
2023-04-15T04:12:52.818Z,79.8204
2023-04-15T04:13:54.438Z,79.9270
2023-04-15T04:14:55.993Z,80.5310
2023-04-15T04:15:58.758Z,79.8310
2023-04-15T04:16:58.032Z,79.8587
2023-04-15T04:17:59.637Z,79.9751
2023-04-15T04:19:02.117Z,80.3090
2023-04-15T04:20:02.049Z,79.9077
2023-04-15T04:21:03.617Z,80.3407
2023-04-15T04:22:05.190Z,80.4909
2023-04-15T04:23:06.723Z,80.5097
2023-04-15T04:24:08.309Z,79.9042
2023-04-15T04:25:09.876Z,80.2727
2023-04-15T04:26:11.460Z,79.2668
2023-04-15T04:27:13.059Z,79.8474
2023-04-15T04:28:14.602Z,79.2060
2023-04-15T04:29:16.209Z,79.3343
2023-04-15T04:30:17.748Z,79.3723
2023-04-15T04:31:19.304Z,79.4634
2023-04-15T04:32:20.921Z,79.7901
2023-04-15T04:33:22.587Z,79.8219
2023-04-15T04:34:24.109Z,79.5208
2023-04-15T04:35:25.672Z,79.5028
2023-04-15T04:36:27.193Z,79.9174
2023-04-15T04:37:28.788Z,79.9101
2023-04-15T04:38:30.303Z,79.3202
2023-04-15T04:39:31.870Z,79.2628
2023-04-15T04:40:33.435Z,79.1495
2023-04-15T04:41:35.188Z,78.4919
2023-04-15T04:42:40.418Z,78.4529
2023-04-15T04:43:37.349Z,78.4993
2023-04-15T04:44:38.926Z,78.3915
2023-04-15T04:45:40.579Z,78.3921
2023-04-15T04:46:42.131Z,78.3521
2023-04-15T04:47:43.797Z,78.0941
2023-04-15T04:48:47.563Z,78.4908
2023-04-15T04:49:46.787Z,78.3250
2023-04-15T04:50:48.341Z,78.2119
2023-04-15T04:51:49.907Z,78.5154
2023-04-15T04:52:51.485Z,78.9408
2023-04-15T04:53:53.043Z,77.9693
2023-04-15T04:54:54.587Z,78.2344
2023-04-15T04:55:56.203Z,78.0009
2023-04-15T04:56:57.802Z,77.1951
2023-04-15T04:57:59.391Z,77.3524
2023-04-15T04:59:01.317Z,77.8752
2023-04-15T05:00:03.156Z,77.9458
2023-04-15T05:01:04.886Z,77.8771
2023-04-15T05:02:06.597Z,78.1229
2023-04-15T05:03:09.013Z,77.7231
2023-04-15T05:04:08.672Z,77.9731
2023-04-15T05:05:10.286Z,77.9852
2023-04-15T05:06:11.846Z,77.3754
2023-04-15T05:07:13.469Z,78.0493
2023-04-15T05:08:14.976Z,79.0076
2023-04-15T05:09:16.558Z,78.0809
2023-04-15T05:10:18.184Z,78.3884
2023-04-15T05:11:19.807Z,78.0694
2023-04-15T05:12:21.342Z,78.5040
2023-04-15T05:13:22.893Z,78.0530
2023-04-15T05:14:24.470Z,78.9120
2023-04-15T05:15:26.061Z,78.9776
2023-04-15T05:16:27.658Z,79.3589
2023-04-15T05:17:29.331Z,79.3233
2023-04-15T05:18:30.921Z,80.1420
2023-04-15T05:19:32.522Z,80.3160
2023-04-15T05:20:34.090Z,79.7215
2023-04-15T05:21:39.608Z,79.0169
2023-04-15T05:22:36.846Z,79.2746
2023-04-15T05:23:38.424Z,79.4245
2023-04-15T05:24:40.023Z,78.6819
2023-04-15T05:25:41.588Z,78.7509
2023-04-15T05:26:43.219Z,79.5561
2023-04-15T05:27:44.753Z,78.5026
2023-04-15T05:28:46.316Z,78.6736
2023-04-15T05:29:47.877Z,78.4529
2023-04-15T05:30:49.493Z,78.2142
2023-04-15T05:31:51.029Z,78.3447
2023-04-15T05:32:52.658Z,78.4814
2023-04-15T05:33:54.282Z,78.5464
2023-04-15T05:34:55.882Z,78.2041
2023-04-15T05:35:57.485Z,78.7430
2023-04-15T05:36:59.050Z,78.6239
2023-04-15T05:38:00.579Z,77.9150
2023-04-15T05:39:02.796Z,77.6559
2023-04-15T05:40:02.266Z,78.1891
2023-04-15T05:41:03.817Z,77.3725
2023-04-15T05:42:05.408Z,77.9408
2023-04-15T05:43:07.037Z,78.1711
2023-04-15T05:44:08.607Z,78.2602
2023-04-15T05:45:10.168Z,77.8321
2023-04-15T05:46:11.931Z,77.7499
2023-04-15T05:47:13.472Z,77.7286
2023-04-15T05:48:15.006Z,77.7849
2023-04-15T05:49:16.569Z,78.4699
2023-04-15T05:50:18.119Z,78.4417
2023-04-15T05:51:19.774Z,77.7215
2023-04-15T05:52:21.502Z,77.8171
2023-04-15T05:53:23.027Z,78.0757
2023-04-15T05:54:23.338Z,77.4748
2023-04-15T05:55:24.924Z,78.0059
2023-04-15T05:56:26.695Z,77.4672
2023-04-15T05:57:28.225Z,78.1782
2023-04-15T05:58:29.809Z,77.4022
2023-04-15T05:59:31.428Z,77.3664
2023-04-15T06:00:32.952Z,77.9005
2023-04-15T06:01:34.568Z,78.0924
2023-04-15T06:02:36.366Z,78.1709
2023-04-15T06:03:38.800Z,77.6899
2023-04-15T06:04:38.291Z,76.6666
2023-04-15T06:05:39.888Z,76.3094
2023-04-15T06:06:41.434Z,76.6261
2023-04-15T06:07:43.011Z,77.0336
2023-04-15T06:08:44.559Z,77.1125
2023-04-15T06:09:46.072Z,76.7126
2023-04-15T06:10:47.580Z,76.5388
2023-04-15T06:11:49.142Z,76.8691
2023-04-15T06:12:50.678Z,76.7505
2023-04-15T06:13:53.312Z,77.3772
2023-04-15T06:14:52.672Z,76.8602
2023-04-15T06:15:54.245Z,76.6234
2023-04-15T06:16:55.819Z,76.3671
2023-04-15T06:17:57.473Z,76.0666
2023-04-15T06:18:59.157Z,76.6132
2023-04-15T06:20:00.674Z,76.8852
2023-04-15T06:21:02.186Z,76.9535
2023-04-15T06:22:03.706Z,76.3869
2023-04-15T06:23:05.233Z,76.9126
2023-04-15T06:24:06.792Z,76.2439
2023-04-15T06:25:08.310Z,76.3752
2023-04-15T06:26:09.855Z,75.9291
2023-04-15T06:27:11.350Z,75.5671
2023-04-15T06:28:12.924Z,75.0213
2023-04-15T06:29:14.463Z,75.8601
2023-04-15T06:30:15.972Z,75.3547
2023-04-15T06:31:17.504Z,75.2264
2023-04-15T06:32:18.965Z,75.6817
2023-04-15T06:33:20.477Z,75.5668
2023-04-15T06:34:22.065Z,75.7110
2023-04-15T06:35:23.594Z,75.0489
2023-04-15T06:36:25.140Z,74.3708
2023-04-15T06:37:26.641Z,75.5417
2023-04-15T06:38:28.161Z,74.4419
2023-04-15T06:39:29.755Z,73.9179
2023-04-15T06:40:31.249Z,74.9653
2023-04-15T06:41:32.775Z,74.4023
2023-04-15T06:42:34.335Z,74.1704
2023-04-15T06:43:35.817Z,73.8873
2023-04-15T06:44:37.385Z,74.3627
2023-04-15T06:45:38.864Z,74.4635
2023-04-15T06:46:40.361Z,73.6129
2023-04-15T06:47:41.929Z,73.0627
2023-04-15T06:48:43.377Z,73.6179
2023-04-15T06:49:44.876Z,73.5951
2023-04-15T06:50:46.415Z,73.3575
2023-04-15T06:51:47.883Z,73.6443
2023-04-15T06:52:49.467Z,74.1676
2023-04-15T06:53:50.970Z,72.4733
2023-04-15T06:54:52.472Z,73.0855
2023-04-15T06:55:53.964Z,72.4226
2023-04-15T06:56:55.475Z,72.6260
2023-04-15T06:57:56.935Z,72.5511
2023-04-15T06:58:58.468Z,72.6736
2023-04-15T06:59:59.964Z,73.3505
2023-04-15T07:01:01.522Z,72.8946
2023-04-15T07:02:03.278Z,73.5304
2023-04-15T07:03:04.805Z,73.1712
2023-04-15T07:04:06.475Z,72.4111
2023-04-15T07:05:08.023Z,72.2583
2023-04-15T07:06:09.538Z,72.4754
2023-04-15T07:07:11.054Z,72.3271
2023-04-15T07:08:12.517Z,71.7709
2023-04-15T07:09:14.042Z,72.7155
2023-04-15T07:10:15.574Z,72.1249
2023-04-15T07:11:17.165Z,72.2267
2023-04-15T07:12:18.681Z,72.1655
2023-04-15T07:13:20.188Z,72.2543
2023-04-15T07:14:21.797Z,71.3962
2023-04-15T07:15:23.322Z,71.8050
2023-04-15T07:16:25.197Z,72.2711
2023-04-15T07:17:25.359Z,72.4306
2023-04-15T07:18:26.859Z,72.5318
2023-04-15T07:19:28.338Z,72.7994
2023-04-15T07:20:29.858Z,72.8557
2023-04-15T07:21:31.378Z,73.2212
2023-04-15T07:22:32.837Z,73.7988
2023-04-15T07:23:34.349Z,74.4412
2023-04-15T07:24:36.013Z,74.5946
2023-04-15T07:25:37.535Z,73.9074
2023-04-15T07:26:39.001Z,74.3396
2023-04-15T07:27:40.478Z,74.0263
2023-04-15T07:28:41.953Z,73.7011
2023-04-15T07:29:43.497Z,74.1692
2023-04-15T07:30:45.096Z,75.2159
2023-04-15T07:31:46.656Z,75.1222
2023-04-15T07:32:48.226Z,75.1013
2023-04-15T07:33:49.718Z,75.6284
2023-04-15T07:34:51.179Z,75.6090
2023-04-15T07:35:52.725Z,76.2993
2023-04-15T07:36:54.235Z,76.6168
2023-04-15T07:37:55.684Z,76.0480
2023-04-15T07:38:57.151Z,76.4991
2023-04-15T07:39:58.636Z,76.5881
2023-04-15T07:41:00.205Z,76.2388
2023-04-15T07:42:01.704Z,76.7353
2023-04-15T07:43:03.188Z,77.2684
2023-04-15T07:44:04.698Z,77.9572
2023-04-15T07:45:06.157Z,77.2018
2023-04-15T07:46:07.776Z,77.1165
2023-04-15T07:47:09.304Z,77.0058
2023-04-15T07:48:10.740Z,77.5174
2023-04-15T07:49:12.280Z,77.0061
2023-04-15T07:50:13.832Z,76.4709
2023-04-15T07:51:15.343Z,76.9076
2023-04-15T07:52:16.968Z,77.3631
2023-04-15T07:53:18.385Z,76.8818
2023-04-15T07:54:19.876Z,76.9406
2023-04-15T07:55:21.386Z,77.5176
2023-04-15T07:56:22.942Z,77.3266
2023-04-15T07:57:24.399Z,77.2053
2023-04-15T07:58:25.836Z,77.4373
2023-04-15T07:59:27.342Z,78.2371
2023-04-15T08:00:28.880Z,76.9474
2023-04-15T08:01:30.388Z,76.5969
2023-04-15T08:02:32.206Z,76.6288
2023-04-15T08:03:34.079Z,76.3375
2023-04-15T08:04:36.124Z,76.4701
2023-04-15T08:05:37.717Z,76.9530
2023-04-15T08:06:39.287Z,76.7364
2023-04-15T08:07:40.780Z,76.6949
2023-04-15T08:08:42.288Z,76.2415
2023-04-15T08:09:43.756Z,76.2986
2023-04-15T08:10:45.255Z,76.0075
2023-04-15T08:11:46.767Z,76.9298
2023-04-15T08:12:48.275Z,76.5456
2023-04-15T08:13:49.796Z,75.7923
2023-04-15T08:14:51.316Z,76.0349
2023-04-15T08:15:52.915Z,76.0444
2023-04-15T08:16:54.484Z,76.1375
2023-04-15T08:17:56.250Z,75.2415
2023-04-15T08:18:57.842Z,75.1190
2023-04-15T08:19:59.400Z,76.2847
2023-04-15T08:21:00.904Z,74.8363
2023-04-15T08:22:02.409Z,75.5025
2023-04-15T08:23:03.930Z,75.3016
2023-04-15T08:24:05.596Z,74.6195
2023-04-15T08:25:07.082Z,74.1909
2023-04-15T08:26:08.707Z,74.3897
2023-04-15T08:27:10.177Z,75.0065
2023-04-15T08:28:11.693Z,74.3163
2023-04-15T08:29:13.276Z,74.8543
2023-04-15T08:30:14.767Z,73.1884
2023-04-15T08:31:16.376Z,72.1177
2023-04-15T08:32:18.003Z,72.8472
2023-04-15T08:33:19.518Z,73.4689
2023-04-15T08:34:21.062Z,73.2882
2023-04-15T08:35:22.538Z,73.2539
2023-04-15T08:36:24.017Z,74.3614
2023-04-15T08:37:25.632Z,75.8176
2023-04-15T08:38:27.123Z,75.0088
2023-04-15T08:39:28.671Z,74.4149
2023-04-15T08:40:30.272Z,74.4679
2023-04-15T08:41:31.763Z,74.2233
2023-04-15T08:42:33.314Z,74.1124
2023-04-15T08:43:34.801Z,74.1030
2023-04-15T08:44:36.317Z,74.2303
2023-04-15T08:45:37.846Z,74.3697
2023-04-15T08:46:39.622Z,74.8370
2023-04-15T08:47:41.333Z,74.1926
2023-04-15T08:48:42.963Z,74.6243
2023-04-15T08:49:44.471Z,74.4148
2023-04-15T08:50:45.973Z,74.9793
2023-04-15T08:51:47.465Z,74.6566
2023-04-15T08:52:49.029Z,73.6726
2023-04-15T08:53:50.494Z,73.0361
2023-04-15T08:54:52.066Z,73.1895
2023-04-15T08:55:53.637Z,73.0935
2023-04-15T08:56:55.280Z,74.3108
2023-04-15T08:57:56.828Z,73.1183
2023-04-15T08:58:58.305Z,72.9730
2023-04-15T08:59:59.852Z,72.0912
2023-04-15T09:01:01.383Z,70.6111
2023-04-15T09:02:02.980Z,69.5806
2023-04-15T09:03:04.625Z,70.4869
2023-04-15T09:04:06.234Z,71.4929
2023-04-15T09:05:07.774Z,71.0664
2023-04-15T09:06:09.312Z,72.1573
2023-04-15T09:07:10.835Z,74.3419
2023-04-15T09:08:12.443Z,74.9530
2023-04-15T09:09:13.975Z,75.0273
2023-04-15T09:10:15.500Z,76.0371
2023-04-15T09:11:20.104Z,76.3009
2023-04-15T09:12:17.506Z,76.6284
2023-04-15T09:13:19.096Z,77.0279
2023-04-15T09:14:20.875Z,77.6599
2023-04-15T09:15:22.398Z,75.9835
2023-04-15T09:16:24.132Z,76.9578
2023-04-15T09:17:25.854Z,77.6164
2023-04-15T09:18:27.435Z,77.7307
2023-04-15T09:19:28.961Z,77.1567
2023-04-15T09:20:30.524Z,78.8262
2023-04-15T09:21:31.991Z,77.2229
2023-04-15T09:22:33.564Z,77.4999
2023-04-15T09:23:35.098Z,77.9139
2023-04-15T09:24:36.639Z,77.3425
2023-04-15T09:25:38.249Z,77.6507
2023-04-15T09:26:39.740Z,77.7431
2023-04-15T09:27:41.237Z,76.6685
2023-04-15T09:28:42.773Z,77.9269
2023-04-15T09:29:44.359Z,78.8539
2023-04-15T09:30:45.950Z,78.0350
2023-04-15T09:31:47.535Z,77.6352
2023-04-15T09:32:49.182Z,75.8234
2023-04-15T09:33:50.668Z,75.9752
2023-04-15T09:34:52.215Z,76.0190
2023-04-15T09:35:53.721Z,72.7154
2023-04-15T09:36:55.301Z,75.6299
2023-04-15T09:37:56.875Z,75.3440
2023-04-15T09:38:58.414Z,76.9400
2023-04-15T09:40:00.033Z,74.1849
2023-04-15T09:41:01.595Z,73.5576
2023-04-15T09:42:03.111Z,74.3920
2023-04-15T09:43:04.698Z,74.8703
2023-04-15T09:44:06.224Z,72.9107
2023-04-15T09:45:07.765Z,73.0472
2023-04-15T09:46:09.754Z,74.8820
2023-04-15T09:47:11.292Z,73.6439
2023-04-15T09:48:12.822Z,73.3201
2023-04-15T09:49:14.404Z,73.8849
2023-04-15T09:50:16.063Z,72.0159
2023-04-15T09:51:17.575Z,71.2461
2023-04-15T09:52:19.330Z,71.1637
2023-04-15T09:53:20.876Z,70.9408
2023-04-15T09:54:22.401Z,71.0934
2023-04-15T09:55:23.926Z,70.8425
2023-04-15T09:56:25.498Z,67.9448
2023-04-15T09:57:27.006Z,67.3206
2023-04-15T09:58:28.556Z,68.9893
2023-04-15T09:59:30.126Z,68.9355
2023-04-15T10:00:31.721Z,69.0829
2023-04-15T10:01:33.464Z,66.9803
2023-04-15T10:02:35.681Z,69.1936
2023-04-15T10:03:35.635Z,71.2385
2023-04-15T10:04:34.924Z,70.5016
2023-04-15T10:05:36.555Z,70.7168
2023-04-15T10:06:38.108Z,70.8803
2023-04-15T10:07:39.896Z,73.0698
2023-04-15T10:08:41.598Z,71.4329
2023-04-15T10:09:43.173Z,71.0717
2023-04-15T10:10:44.683Z,72.2933
2023-04-15T10:11:46.245Z,71.3373
2023-04-15T10:12:47.869Z,71.6119
2023-04-15T10:13:49.422Z,72.2357
2023-04-15T10:14:51.071Z,71.4985
2023-04-15T10:15:52.653Z,71.6810
2023-04-15T10:16:54.157Z,71.7846
2023-04-15T10:17:56.020Z,73.5470
2023-04-15T10:18:57.527Z,75.0216
2023-04-15T10:19:59.295Z,75.1474
2023-04-15T10:21:00.822Z,76.1999
2023-04-15T10:22:02.436Z,74.3323
2023-04-15T10:23:03.938Z,73.9028
2023-04-15T10:24:05.490Z,74.6301
2023-04-15T10:25:07.123Z,75.5913
2023-04-15T10:26:08.954Z,76.2830
2023-04-15T10:27:10.690Z,74.6881
2023-04-15T10:28:12.288Z,74.2035
2023-04-15T10:29:13.883Z,74.4539
2023-04-15T10:30:15.528Z,73.6027
2023-04-15T10:31:17.177Z,73.1427
2023-04-15T10:32:18.889Z,74.1426
2023-04-15T10:33:20.611Z,72.9297
2023-04-15T10:34:22.201Z,74.3020
2023-04-15T10:35:23.765Z,74.4606
2023-04-15T10:36:25.315Z,73.8469
2023-04-15T10:37:27.005Z,74.2594
2023-04-15T10:38:28.653Z,74.7500
2023-04-15T10:39:30.248Z,73.7658
2023-04-15T10:40:31.837Z,72.9096
2023-04-15T10:41:33.413Z,72.0633
2023-04-15T10:42:34.948Z,72.1738
2023-04-15T10:43:36.416Z,72.3395
2023-04-15T10:44:38.025Z,72.5492
2023-04-15T10:45:39.565Z,72.7137
2023-04-15T10:46:41.266Z,72.3845
2023-04-15T10:47:42.834Z,72.8592
2023-04-15T10:48:44.355Z,72.2373
2023-04-15T10:49:45.912Z,71.1370
2023-04-15T10:50:47.464Z,72.7401
2023-04-15T10:51:48.939Z,75.3008
2023-04-15T10:52:50.529Z,76.8318
2023-04-15T10:53:52.057Z,76.4993
2023-04-15T10:54:53.643Z,77.0696
2023-04-15T10:55:55.182Z,76.7754
2023-04-15T10:56:56.662Z,76.8669
2023-04-15T10:57:58.191Z,76.7242
2023-04-15T10:58:59.712Z,75.5802
2023-04-15T11:00:01.210Z,75.5644
2023-04-15T11:01:02.759Z,74.9514
2023-04-15T11:02:04.560Z,76.9681
2023-04-15T11:03:06.458Z,77.2261
2023-04-15T11:04:08.810Z,76.8816
2023-04-15T11:05:08.112Z,77.5480
2023-04-15T11:06:09.644Z,76.6094
2023-04-15T11:07:11.126Z,75.8193
2023-04-15T11:08:12.629Z,75.8674
2023-04-15T11:09:14.360Z,75.4323
2023-04-15T11:10:16.026Z,76.3889
2023-04-15T11:11:17.586Z,75.9494
2023-04-15T11:12:18.996Z,74.2034
2023-04-15T11:13:20.515Z,74.3948
2023-04-15T11:14:22.060Z,74.1145
2023-04-15T11:15:23.544Z,73.9158
2023-04-15T11:16:25.072Z,74.3643
2023-04-15T11:17:26.586Z,74.7653
2023-04-15T11:18:28.116Z,73.7970
2023-04-15T11:19:29.648Z,74.5175
2023-04-15T11:20:31.232Z,74.3444
2023-04-15T11:21:32.773Z,76.0508
2023-04-15T11:22:34.254Z,76.6191
2023-04-15T11:23:35.795Z,76.7840
2023-04-15T11:24:37.309Z,76.5108
2023-04-15T11:25:39.028Z,77.5103
2023-04-15T11:26:40.751Z,77.9326
2023-04-15T11:27:42.271Z,77.2501
2023-04-15T11:28:43.948Z,77.5221
2023-04-15T11:29:45.679Z,78.2618
2023-04-15T11:30:47.450Z,78.7340
2023-04-15T11:31:49.048Z,79.3138
2023-04-15T11:32:50.719Z,79.3427
2023-04-15T11:33:52.248Z,78.5532
2023-04-15T11:34:53.801Z,78.5503
2023-04-15T11:35:56.462Z,78.3731
2023-04-15T11:36:55.674Z,78.1339
2023-04-15T11:37:57.225Z,77.9802
2023-04-15T11:38:58.846Z,78.1048
2023-04-15T11:40:00.415Z,78.3000
2023-04-15T11:41:01.984Z,78.2649
2023-04-15T11:42:03.596Z,78.2597
2023-04-15T11:43:05.172Z,78.6086
2023-04-15T11:44:06.813Z,78.8575
2023-04-15T11:45:08.401Z,78.5090
2023-04-15T11:46:10.048Z,78.8755
2023-04-15T11:47:11.622Z,78.3546
2023-04-15T11:48:13.198Z,78.7830
2023-04-15T11:49:14.808Z,78.2587
2023-04-15T11:50:16.397Z,78.1667
2023-04-15T11:51:17.943Z,78.2014
2023-04-15T11:52:19.550Z,78.7512
2023-04-15T11:53:21.101Z,79.2039
2023-04-15T11:54:22.660Z,80.1043
2023-04-15T11:55:24.211Z,79.3035
2023-04-15T11:56:25.739Z,79.5132
2023-04-15T11:57:27.333Z,79.6071
2023-04-15T11:58:28.887Z,79.5361
2023-04-15T11:59:45.007Z,78.1294
2023-04-15T12:00:32.039Z,76.4060
2023-04-15T12:01:33.625Z,76.6842
2023-04-15T12:02:35.807Z,77.0115
2023-04-15T12:03:35.289Z,76.6669
2023-04-15T12:04:37.849Z,76.0143
2023-04-15T12:05:37.225Z,75.5530
2023-04-15T12:06:38.744Z,74.7332
2023-04-15T12:07:40.217Z,74.7904
2023-04-15T12:08:41.763Z,74.3502
2023-04-15T12:09:43.214Z,73.4476
2023-04-15T12:10:44.714Z,71.9273
2023-04-15T12:11:46.156Z,72.0021
2023-04-15T12:12:47.750Z,72.4841
2023-04-15T12:13:49.213Z,72.6011
2023-04-15T12:14:50.697Z,73.4930
2023-04-15T12:15:52.314Z,74.2051
2023-04-15T12:16:54.053Z,74.3691
2023-04-15T12:17:55.553Z,73.7723
2023-04-15T12:18:57.187Z,73.8465
2023-04-15T12:19:58.696Z,73.8736
2023-04-15T12:21:00.159Z,72.8782
2023-04-15T12:22:01.704Z,72.3129
2023-04-15T12:23:03.136Z,71.5602
2023-04-15T12:24:05.557Z,71.1808